首页
METAR-TAF:

METAR-TAF

机场 :

谢列梅捷沃国际机场

莫斯科舍列梅季耶夫, 俄罗斯

纬度: 55-58N, 经度: 037-25E, 海拔: 190米

当前天气观测

该预报发布于37分钟前的21:00 UTC
风速10节,风向南转南东
温度 -2°C
湿度 100%
气压 1013 hPa
能見度: 4700
阴天层高于500英尺
(小) 冻, 毛毛雨, 轻雾

METAR: UUEE 142100Z 15005MPS 4700 -FZDZ BR OVC005 M02/M02 Q1013 R06R/290051 R06C/290051 R06L/190057 NOSIG

时间: 00:37 (21:37 UTC)

预报

该预报发布于1小时和41分钟前的19:56 UTC
预报有效从14日的 21点(UTC)到 15日的 21点(UTC)
风速10节,风向东南,有时为23节阵风
能見度: 6000
阴天层高于500英尺
短暂存在
从 14日的 21点(UTC)到 15日的 07点(UTC)
能見度: 2100
阴天层高于300英尺
(小) 冻, 雨, 小雪, 轻雾
短暂存在
从 15日的 07点(UTC)到 15日的 16点(UTC)
能見度: 3100
阴天层高于800英尺
小雨, 雪, 轻雾
短暂存在
从 15日的 16点(UTC)到 15日的 21点(UTC)
能見度: 1000
多云层高于400英尺
多云层高于1100英尺, 积雨云.
阵雪
成为
从 15日的 17点(UTC)到 15日的 21点(UTC)
风速14节,风向西南

TAF: UUEE 141956Z 1421/1521 14005G12MPS 6000 OVC005 TX02/1515Z TNM02/1421Z TEMPO 1421/1507 2100 -FZRA -SN BR OVC003 TEMPO 1507/1516 3100 -RASN BR OVC008 TEMPO 1516/1521 1000 SHSN BKN004 BKN011CB BECMG 1517/1521 22007MPS

超过4000个机场的气象观测和天气预报(METAR&TAF报告)。

可查询的气象台以黄色和红色小点在地图上表示。

将鼠标移到小点上方,可查看气象台名称。

然后点击查看天气观测和预报。

如需切换地图:点击带黑十字的绿色按钮放大地图;点击带横线的绿色按钮缩小地图;或者点击绿色箭头查看邻近地区的地图。


METAR-TAF: